Time;durP1;ratioP1;P1;durP2;ratioP2;P2;SDS_P1;SDS_P2;PMS_P1;PMS_P2;Temp;Humidity;BMP_temperature;BMP_pressure;BME280_temperature;BME280_humidity;BME280_pressure;Samples;Min_cycle;Max_cycle;Signal;HPM_P1;HPM_P2
2022/09/13 00:04:31;;;;;;;7;4;;;;;;;;;;;;;-77
2022/09/13 00:34:34;;;;;;;4.7;3.3;;;;;;;;;;;;;-76
2022/09/13 01:04:38;;;;;;;4.5;2.9;;;;;;;;;;;;;-75
2022/09/13 01:34:45;;;;;;;4.9;3;;;;;;;;;;;;;-76
2022/09/13 02:04:42;;;;;;;3.9;2.4;;;;;;;;;;;;;-76
2022/09/13 02:34:43;;;;;;;4.7;2.8;;;;;;;;;;;;;-76
2022/09/13 03:04:43;;;;;;;4.9;2.6;;;;;;;;;;;;;-77
2022/09/13 03:34:51;;;;;;;3.6;2.4;;;;;;;;;;;;;-76
2022/09/13 04:04:48;;;;;;;4.9;2.4;;;;;;;;;;;;;-76
2022/09/13 04:34:50;;;;;;;4.3;2.7;;;;;;;;;;;;;-78
2022/09/13 05:04:52;;;;;;;6.2;2.2;;;;;;;;;;;;;-77
2022/09/13 05:34:54;;;;;;;2.1;1.2;;;;;;;;;;;;;-76
2022/09/13 06:04:56;;;;;;;3;1;;;;;;;;;;;;;-77
2022/09/13 06:34:59;;;;;;;3.1;0.9;;;;;;;;;;;;;-75
2022/09/13 07:05:01;;;;;;;1.6;0.9;;;;;;;;;;;;;-78
2022/09/13 07:35:05;;;;;;;1.9;0.7;;;;;;;;;;;;;-76
2022/09/13 08:05:06;;;;;;;3.9;0.8;;;;;;;;;;;;;-78
2022/09/13 08:35:08;;;;;;;3.1;0.7;;;;;;;;;;;;;-81
2022/09/13 09:05:16;;;;;;;3.6;0.7;;;;;;;;;;;;;-77
2022/09/13 09:35:20;;;;;;;3.7;0.7;;;;;;;;;;;;;-78
2022/09/13 10:05:21;;;;;;;2.4;0.5;;;;;;;;;;;;;-77
2022/09/13 10:35:23;;;;;;;3.1;0.4;;;;;;;;;;;;;-77
2022/09/13 11:05:29;;;;;;;2.5;0.5;;;;;;;;;;;;;-76
2022/09/13 11:35:45;;;;;;;1.6;0.4;;;;;;;;;;;;;-77
2022/09/13 12:05:39;;;;;;;2.5;0.4;;;;;;;;;;;;;-77
2022/09/13 12:35:46;;;;;;;2;0.5;;;;;;;;;;;;;-77
2022/09/13 13:05:49;;;;;;;1.8;0.5;;;;;;;;;;;;;-76
2022/09/13 13:35:52;;;;;;;2;0.5;;;;;;;;;;;;;-76
2022/09/13 14:06:00;;;;;;;1.7;0.4;;;;;;;;;;;;;-77
2022/09/13 14:36:10;;;;;;;1.7;0.4;;;;;;;;;;;;;-79
2022/09/13 15:06:07;;;;;;;2.1;0.5;;;;;;;;;;;;;-77
2022/09/13 15:36:29;;;;;;;2.6;0.5;;;;;;;;;;;;;-78
2022/09/13 16:06:17;;;;;;;2.5;0.6;;;;;;;;;;;;;-78
2022/09/13 16:36:20;;;;;;;2.8;0.9;;;;;;;;;;;;;-78
2022/09/13 17:06:26;;;;;;;4.3;0.9;;;;;;;;;;;;;-79
2022/09/13 17:36:28;;;;;;;2.3;0.9;;;;;;;;;;;;;-78
2022/09/13 18:06:32;;;;;;;2.9;0.8;;;;;;;;;;;;;-76
2022/09/13 18:36:36;;;;;;;2.9;0.8;;;;;;;;;;;;;-76
2022/09/13 19:06:39;;;;;;;4.3;0.9;;;;;;;;;;;;;-77
2022/09/13 19:36:41;;;;;;;3.3;0.8;;;;;;;;;;;;;-76
2022/09/13 20:06:43;;;;;;;3;0.7;;;;;;;;;;;;;-77
2022/09/13 20:36:46;;;;;;;2.1;0.6;;;;;;;;;;;;;-76
2022/09/13 21:36:49;;;;;;;3.7;1.3;;;;;;;;;;;;;-76
2022/09/13 22:06:52;;;;;;;3.4;1.2;;;;;;;;;;;;;-76
2022/09/13 22:36:53;;;;;;;2.9;1;;;;;;;;;;;;;-77
2022/09/13 23:06:55;;;;;;;1.6;0.7;;;;;;;;;;;;;-76
2022/09/13 23:36:57;;;;;;;2.2;0.8;;;;;;;;;;;;;-77
